Terminal Aerodrome Forecast
Issued by NWS Louisville, KY

Home | Current Version | Previous Version | Text Only | Print | Product List | Glossary On
Versions: 1 2 3 4 5 6 7 8 9 10 11 12 13 14 15 16 17 18 19 20
000
FTUS43 KLMK 241700
TAFLEX
TAF
KLEX 241729Z 2418/2518 23012G17KT P6SM SCT012
     FM250000 20005KT P6SM FEW010 FEW250
     FM251200 18006KT P6SM SCT010 BKN070=

USA.gov is the U.S. government's official web portal to all federal, state and local government web resources and services.